createdAt,value
2023-04-11T03:41:27.981Z,100465.66
2023-04-11T03:44:42.229Z,100465.66
2023-04-11T03:47:44.961Z,100452.84
2023-04-11T03:50:48.801Z,100455.38
2023-04-11T03:53:53.563Z,100453.41
2023-04-11T03:56:57.223Z,100459.22
2023-04-11T04:00:01.165Z,100458.16
2023-04-11T04:03:07.049Z,100466.47
2023-04-11T04:06:11.455Z,100470.38
2023-04-11T04:09:14.767Z,100465.78
2023-04-11T04:12:21.630Z,100464.03
2023-04-11T04:15:26.807Z,100455.44
2023-04-11T04:18:30.135Z,100469.44
2023-04-11T04:21:33.809Z,100468.50
2023-04-11T04:24:39.471Z,100459.81
2023-04-11T04:27:44.482Z,100455.47
2023-04-11T04:30:50.131Z,100450.19
2023-04-11T04:33:53.042Z,100458.69
2023-04-11T04:36:59.623Z,100456.81
2023-04-11T04:40:09.726Z,100465.50
2023-04-11T04:43:18.622Z,100474.87
2023-04-11T04:46:23.207Z,100467.72
2023-04-11T04:49:26.987Z,100466.56
2023-04-11T04:52:30.082Z,100466.22
2023-04-11T04:55:33.392Z,100464.88
2023-04-11T04:58:36.107Z,100456.59
2023-04-11T05:01:40.009Z,100450.84
2023-04-11T05:04:44.903Z,100459.91
2023-04-11T05:07:48.599Z,100448.00
2023-04-11T05:10:52.079Z,100446.53
2023-04-11T05:13:56.726Z,100438.09
2023-04-11T05:16:59.589Z,100451.19
2023-04-11T05:20:06.930Z,100444.44
2023-04-11T05:23:09.890Z,100448.19
2023-04-11T05:26:13.014Z,100437.81
2023-04-11T05:29:18.792Z,100438.41
2023-04-11T05:32:22.404Z,100431.09
2023-04-11T05:35:25.252Z,100433.69
2023-04-11T05:38:28.220Z,100430.41
2023-04-11T05:41:30.886Z,100434.81
2023-04-11T05:44:34.941Z,100435.16
2023-04-11T05:47:37.608Z,100427.91
2023-04-11T05:50:41.382Z,100430.16
2023-04-11T05:53:44.934Z,100418.41
2023-04-11T05:56:47.826Z,100409.44
2023-04-11T05:59:52.968Z,100406.22
2023-04-11T06:02:56.013Z,100405.53
2023-04-11T06:06:00.267Z,100412.59
2023-04-11T06:09:02.869Z,100405.47
2023-04-11T06:12:06.333Z,100396.44
2023-04-11T06:15:09.607Z,100396.09
2023-04-11T06:18:13.597Z,100395.97
2023-04-11T06:21:16.285Z,100405.47
2023-04-11T06:24:35.393Z,100398.59
2023-04-11T06:27:38.135Z,100397.19
2023-04-11T06:30:41.633Z,100392.28
2023-04-11T06:33:45.004Z,100396.56
2023-04-11T06:36:49.873Z,100386.25
2023-04-11T06:39:52.541Z,100381.25
2023-04-11T06:42:57.965Z,100378.69
2023-04-11T06:46:00.945Z,100383.63
2023-04-11T06:49:04.046Z,100390.31
2023-04-11T06:52:07.026Z,100380.19
2023-04-11T06:55:12.109Z,100385.34
2023-04-11T06:58:14.776Z,100371.59
2023-04-11T07:01:20.817Z,100372.69
2023-04-11T07:04:23.611Z,100375.84
2023-04-11T07:07:26.548Z,100375.16
2023-04-11T07:10:29.399Z,100377.00
2023-04-11T07:13:32.382Z,100376.31
2023-04-11T07:16:35.302Z,100352.41
2023-04-11T07:19:38.705Z,100362.59
2023-04-11T07:22:43.292Z,100350.84
2023-04-11T07:25:46.237Z,100351.72
2023-04-11T07:28:49.919Z,100354.84
2023-04-11T07:31:55.344Z,100351.75
2023-04-11T07:34:58.727Z,100348.56
2023-04-11T07:38:01.985Z,100355.47
2023-04-11T07:41:05.838Z,100352.19
2023-04-11T07:44:09.627Z,100355.06
2023-04-11T07:47:12.341Z,100356.53
2023-04-11T07:50:15.438Z,100347.53
2023-04-11T07:53:18.038Z,100356.16
2023-04-11T07:56:21.028Z,100348.06
2023-04-11T07:59:23.644Z,100342.88
2023-04-11T08:02:26.796Z,100343.38
2023-04-11T08:05:30.598Z,100341.28
2023-04-11T08:08:33.209Z,100337.62
2023-04-11T08:11:36.490Z,100331.53
2023-04-11T08:14:39.040Z,100329.41
2023-04-11T08:17:43.822Z,100335.94
2023-04-11T08:20:46.651Z,100328.78
2023-04-11T08:23:51.673Z,100315.66
2023-04-11T08:26:54.285Z,100314.47
2023-04-11T08:29:58.912Z,100314.81
2023-04-11T08:33:01.880Z,100293.66
2023-04-11T08:36:09.828Z,100294.91
2023-04-11T08:39:12.653Z,100291.97
2023-04-11T08:42:24.371Z,100283.56
2023-04-11T08:45:27.751Z,100274.37
2023-04-11T08:48:32.216Z,100266.38
2023-04-11T08:51:34.895Z,100263.56
2023-04-11T08:54:37.801Z,100249.78
2023-04-11T08:57:40.251Z,100247.13
2023-04-11T09:00:43.458Z,100248.31
2023-04-11T09:03:52.465Z,100247.22
2023-04-11T09:07:00.458Z,100231.97
2023-04-11T09:10:20.535Z,100245.66
2023-04-11T09:13:25.694Z,100243.78
2023-04-11T09:16:28.444Z,100235.06
2023-04-11T09:19:34.925Z,100235.34
2023-04-11T09:22:37.727Z,100237.28
2023-04-11T09:25:44.168Z,100230.75
2023-04-11T09:28:54.340Z,100224.69
2023-04-11T09:31:57.642Z,100210.47
2023-04-11T09:35:22.647Z,100210.75
2023-04-11T09:38:29.582Z,100206.91
2023-04-11T09:41:38.702Z,100196.78
2023-04-11T09:44:42.084Z,100198.81
2023-04-11T09:47:45.999Z,100200.88
2023-04-11T09:50:51.852Z,100195.69
2023-04-11T09:53:56.237Z,100194.66
2023-04-11T09:57:00.310Z,100191.84
2023-04-11T10:00:17.073Z,100180.22
2023-04-11T10:03:23.501Z,100178.75
2023-04-11T10:06:59.656Z,100175.94
2023-04-11T10:10:03.903Z,100173.06
2023-04-11T10:13:41.981Z,100163.69
2023-04-11T10:17:24.317Z,100170.44
2023-04-11T10:20:39.313Z,100162.75
2023-04-11T10:24:18.045Z,100166.44
2023-04-11T10:27:50.590Z,100153.00
2023-04-11T10:31:05.158Z,100143.94
2023-04-11T10:34:14.513Z,100134.94
2023-04-11T10:37:37.281Z,100131.56
2023-04-11T10:41:14.791Z,100117.28
2023-04-11T10:44:21.429Z,100114.41
2023-04-11T10:47:26.239Z,100111.59
2023-04-11T10:50:33.405Z,100105.00
2023-04-11T10:53:37.466Z,100105.88
2023-04-11T10:56:40.529Z,100098.53
2023-04-11T10:59:43.258Z,100094.78
2023-04-11T11:02:46.956Z,100086.62
2023-04-11T11:06:06.580Z,100083.97
2023-04-11T11:09:28.401Z,100070.09
2023-04-11T11:12:31.058Z,100072.47
2023-04-11T11:15:41.289Z,100067.69
2023-04-11T11:18:50.792Z,100060.38
2023-04-11T11:21:53.772Z,100055.13
2023-04-11T11:25:07.650Z,100051.06
2023-04-11T11:28:10.578Z,100051.78
2023-04-11T11:31:13.879Z,100038.28
2023-04-11T11:34:31.074Z,100036.03
2023-04-11T11:37:33.651Z,100033.44
2023-04-11T11:40:37.349Z,100034.22
2023-04-11T11:43:40.180Z,100035.03
2023-04-11T11:47:03.340Z,100036.91
2023-04-11T11:50:07.160Z,100023.69
2023-04-11T11:53:16.733Z,100025.97
2023-04-11T11:56:19.482Z,100020.19
2023-04-11T11:59:30.074Z,100024.44
2023-04-11T12:02:35.266Z,100018.88
2023-04-11T12:05:38.645Z,100014.97
2023-04-11T12:08:45.750Z,100023.50
2023-04-11T12:11:49.550Z,100009.97
2023-04-11T12:14:54.243Z,100011.94
2023-04-11T12:17:57.542Z,100008.47
2023-04-11T12:21:00.827Z,100009.09
2023-04-11T12:24:07.133Z,100015.81
2023-04-11T12:27:14.332Z,100021.91
2023-04-11T12:30:17.369Z,100010.47
2023-04-11T12:33:20.006Z,100012.56
2023-04-11T12:36:22.970Z,100010.06
2023-04-11T12:39:26.118Z,100006.47
2023-04-11T12:42:28.844Z,100002.00
2023-04-11T12:45:33.216Z,99998.31
2023-04-11T12:48:36.069Z,99984.81
2023-04-11T12:51:38.683Z,99981.19
2023-04-11T12:54:41.639Z,99979.84
2023-04-11T12:57:44.303Z,99974.53
2023-04-11T13:00:47.253Z,99968.03
2023-04-11T13:03:51.082Z,99971.72
2023-04-11T13:06:54.402Z,99953.56
2023-04-11T13:09:57.168Z,99947.50
2023-04-11T13:13:19.007Z,99943.81
2023-04-11T13:16:21.847Z,99935.72
2023-04-11T13:19:24.811Z,99931.38
2023-04-11T13:22:27.882Z,99930.34
2023-04-11T13:25:31.377Z,99926.81
2023-04-11T13:28:38.977Z,99925.66
2023-04-11T13:31:41.911Z,99925.72
2023-04-11T13:34:44.687Z,99914.72
2023-04-11T13:37:49.089Z,99905.62
2023-04-11T13:40:52.924Z,99903.97
2023-04-11T13:43:56.157Z,99892.69
2023-04-11T13:46:59.748Z,99896.19
2023-04-11T13:54:14.974Z,99895.25
2023-04-11T13:57:18.013Z,99891.31
2023-04-11T14:00:21.946Z,99888.06
2023-04-11T14:03:25.162Z,99889.69
2023-04-11T14:06:28.352Z,99895.75
2023-04-11T14:09:32.018Z,99884.00
2023-04-11T14:12:34.626Z,99885.22
2023-04-11T14:15:37.636Z,99880.81
2023-04-11T14:18:40.445Z,99888.81
2023-04-11T14:21:43.643Z,99887.81
2023-04-11T14:24:46.304Z,99887.16
2023-04-11T14:27:49.115Z,99895.00
2023-04-11T14:30:51.974Z,99903.72
2023-04-11T14:33:55.231Z,99896.22
2023-04-11T14:36:57.747Z,99915.19
2023-04-11T14:40:01.554Z,99928.28
2023-04-11T14:43:12.302Z,99922.41
2023-04-11T14:46:15.093Z,99930.94
2023-04-11T14:49:18.015Z,99934.63
2023-04-11T14:52:21.541Z,99935.88
2023-04-11T14:55:24.480Z,99928.53
2023-04-11T14:58:27.248Z,99936.44
2023-04-11T15:01:30.793Z,99939.97
2023-04-11T15:04:33.828Z,99930.66
2023-04-11T15:07:39.469Z,99943.59
2023-04-11T15:10:45.862Z,99941.19
2023-04-11T15:13:49.282Z,99949.47
2023-04-11T15:16:52.368Z,99946.50
2023-04-11T15:19:55.056Z,99945.22
2023-04-11T15:22:57.936Z,99957.03
2023-04-11T15:26:02.757Z,99961.97
2023-04-11T15:29:07.256Z,99963.28
2023-04-11T15:32:10.120Z,99970.53
2023-04-11T15:35:13.092Z,99965.53
2023-04-11T15:38:17.376Z,99963.00
2023-04-11T15:41:20.841Z,99964.75
2023-04-11T15:44:23.623Z,99975.00
2023-04-11T15:47:26.617Z,99982.31
